sensor_id;sensor_type;location;lat;lon;timestamp;P1;durP1;ratioP1;P2;durP2;ratioP2
79284;SDS011;68734;50.452;11.636;2023-10-31T00:00:15;2.72;;;2.15;;
79284;SDS011;68734;50.452;11.636;2023-10-31T00:02:41;2.88;;;1.92;;
79284;SDS011;68734;50.452;11.636;2023-10-31T00:05:06;2.45;;;1.80;;
79284;SDS011;68734;50.452;11.636;2023-10-31T00:07:32;3.22;;;2.03;;
79284;SDS011;68734;50.452;11.636;2023-10-31T00:10:00;4.20;;;1.73;;
79284;SDS011;68734;50.452;11.636;2023-10-31T00:12:26;3.33;;;2.30;;
79284;SDS011;68734;50.452;11.636;2023-10-31T00:14:51;3.67;;;2.33;;
79284;SDS011;68734;50.452;11.636;2023-10-31T00:17:19;2.38;;;1.70;;
79284;SDS011;68734;50.452;11.636;2023-10-31T00:19:44;2.85;;;2.20;;
79284;SDS011;68734;50.452;11.636;2023-10-31T00:22:12;5.00;;;2.08;;
79284;SDS011;68734;50.452;11.636;2023-10-31T00:24:43;2.15;;;1.70;;
79284;SDS011;68734;50.452;11.636;2023-10-31T00:27:08;2.55;;;2.10;;
79284;SDS011;68734;50.452;11.636;2023-10-31T00:29:34;1.67;;;1.52;;
79284;SDS011;68734;50.452;11.636;2023-10-31T00:32:01;2.60;;;1.80;;
79284;SDS011;68734;50.452;11.636;2023-10-31T00:34:27;2.70;;;2.15;;
79284;SDS011;68734;50.452;11.636;2023-10-31T00:36:52;2.42;;;1.83;;
79284;SDS011;68734;50.452;11.636;2023-10-31T00:39:18;2.40;;;1.85;;
79284;SDS011;68734;50.452;11.636;2023-10-31T00:41:44;2.80;;;2.25;;
79284;SDS011;68734;50.452;11.636;2023-10-31T00:44:12;3.13;;;2.45;;
79284;SDS011;68734;50.452;11.636;2023-10-31T00:46:38;2.63;;;1.90;;
79284;SDS011;68734;50.452;11.636;2023-10-31T00:49:04;2.67;;;2.20;;
79284;SDS011;68734;50.452;11.636;2023-10-31T00:51:32;2.63;;;1.70;;
79284;SDS011;68734;50.452;11.636;2023-10-31T00:53:57;2.40;;;1.73;;
79284;SDS011;68734;50.452;11.636;2023-10-31T00:56:25;3.47;;;2.53;;
79284;SDS011;68734;50.452;11.636;2023-10-31T00:58:50;2.28;;;2.00;;
79284;SDS011;68734;50.452;11.636;2023-10-31T01:01:18;3.05;;;2.28;;
79284;SDS011;68734;50.452;11.636;2023-10-31T01:03:46;3.15;;;2.47;;
79284;SDS011;68734;50.452;11.636;2023-10-31T01:06:11;3.10;;;2.50;;
79284;SDS011;68734;50.452;11.636;2023-10-31T01:08:37;2.85;;;1.85;;
79284;SDS011;68734;50.452;11.636;2023-10-31T01:11:02;3.60;;;2.55;;
79284;SDS011;68734;50.452;11.636;2023-10-31T01:13:28;3.67;;;2.40;;
79284;SDS011;68734;50.452;11.636;2023-10-31T01:15:53;3.20;;;2.40;;
79284;SDS011;68734;50.452;11.636;2023-10-31T01:18:21;3.00;;;2.15;;
79284;SDS011;68734;50.452;11.636;2023-10-31T01:20:46;2.97;;;1.90;;
79284;SDS011;68734;50.452;11.636;2023-10-31T01:23:12;2.42;;;1.35;;
79284;SDS011;68734;50.452;11.636;2023-10-31T01:25:37;1.92;;;1.30;;
79284;SDS011;68734;50.452;11.636;2023-10-31T01:28:03;1.48;;;1.10;;
79284;SDS011;68734;50.452;11.636;2023-10-31T01:30:28;2.30;;;1.20;;
79284;SDS011;68734;50.452;11.636;2023-10-31T01:32:54;1.45;;;0.90;;
79284;SDS011;68734;50.452;11.636;2023-10-31T01:35:19;1.63;;;1.20;;
79284;SDS011;68734;50.452;11.636;2023-10-31T01:37:44;1.45;;;1.00;;
79284;SDS011;68734;50.452;11.636;2023-10-31T01:40:13;1.83;;;1.15;;
79284;SDS011;68734;50.452;11.636;2023-10-31T01:42:39;1.70;;;1.02;;
79284;SDS011;68734;50.452;11.636;2023-10-31T01:45:04;1.80;;;1.00;;
79284;SDS011;68734;50.452;11.636;2023-10-31T01:47:31;1.13;;;0.85;;
79284;SDS011;68734;50.452;11.636;2023-10-31T01:49:57;3.00;;;1.40;;
79284;SDS011;68734;50.452;11.636;2023-10-31T01:52:23;1.20;;;1.00;;
79284;SDS011;68734;50.452;11.636;2023-10-31T01:54:48;1.40;;;0.90;;
79284;SDS011;68734;50.452;11.636;2023-10-31T01:57:14;1.95;;;1.10;;
79284;SDS011;68734;50.452;11.636;2023-10-31T01:59:41;1.00;;;0.77;;
79284;SDS011;68734;50.452;11.636;2023-10-31T02:02:06;0.57;;;0.40;;
79284;SDS011;68734;50.452;11.636;2023-10-31T02:04:34;1.20;;;0.80;;
79284;SDS011;68734;50.452;11.636;2023-10-31T02:07:00;0.40;;;0.40;;
79284;SDS011;68734;50.452;11.636;2023-10-31T02:09:25;2.38;;;0.60;;
79284;SDS011;68734;50.452;11.636;2023-10-31T02:11:54;0.50;;;0.40;;
79284;SDS011;68734;50.452;11.636;2023-10-31T02:14:23;1.48;;;0.50;;
79284;SDS011;68734;50.452;11.636;2023-10-31T02:16:49;1.00;;;0.70;;
79284;SDS011;68734;50.452;11.636;2023-10-31T02:19:15;0.77;;;0.77;;
79284;SDS011;68734;50.452;11.636;2023-10-31T02:21:44;0.70;;;0.40;;
79284;SDS011;68734;50.452;11.636;2023-10-31T02:24:10;0.57;;;0.43;;
79284;SDS011;68734;50.452;11.636;2023-10-31T02:26:40;2.17;;;0.77;;
79284;SDS011;68734;50.452;11.636;2023-10-31T02:29:07;0.70;;;0.50;;
79284;SDS011;68734;50.452;11.636;2023-10-31T02:31:33;0.68;;;0.57;;
79284;SDS011;68734;50.452;11.636;2023-10-31T02:33:59;0.85;;;0.70;;
79284;SDS011;68734;50.452;11.636;2023-10-31T02:36:24;1.17;;;0.90;;
79284;SDS011;68734;50.452;11.636;2023-10-31T02:38:49;1.38;;;0.80;;
79284;SDS011;68734;50.452;11.636;2023-10-31T02:41:15;1.98;;;0.73;;
79284;SDS011;68734;50.452;11.636;2023-10-31T02:43:41;1.23;;;0.80;;
79284;SDS011;68734;50.452;11.636;2023-10-31T02:46:06;1.50;;;0.93;;
79284;SDS011;68734;50.452;11.636;2023-10-31T02:48:32;1.70;;;0.90;;
79284;SDS011;68734;50.452;11.636;2023-10-31T02:51:06;1.15;;;0.70;;
79284;SDS011;68734;50.452;11.636;2023-10-31T02:53:32;1.55;;;0.77;;
79284;SDS011;68734;50.452;11.636;2023-10-31T02:55:58;1.40;;;0.80;;
79284;SDS011;68734;50.452;11.636;2023-10-31T02:58:24;0.90;;;0.60;;
79284;SDS011;68734;50.452;11.636;2023-10-31T03:00:49;1.10;;;0.93;;
79284;SDS011;68734;50.452;11.636;2023-10-31T03:03:17;3.97;;;0.60;;
79284;SDS011;68734;50.452;11.636;2023-10-31T03:05:42;1.05;;;0.88;;
79284;SDS011;68734;50.452;11.636;2023-10-31T03:08:08;1.23;;;0.63;;
79284;SDS011;68734;50.452;11.636;2023-10-31T03:10:35;2.22;;;0.82;;
79284;SDS011;68734;50.452;11.636;2023-10-31T03:13:01;1.00;;;0.70;;
79284;SDS011;68734;50.452;11.636;2023-10-31T03:15:27;1.08;;;0.70;;
79284;SDS011;68734;50.452;11.636;2023-10-31T03:17:55;1.50;;;0.70;;
79284;SDS011;68734;50.452;11.636;2023-10-31T03:20:20;1.73;;;0.70;;
79284;SDS011;68734;50.452;11.636;2023-10-31T03:22:45;1.00;;;0.70;;
79284;SDS011;68734;50.452;11.636;2023-10-31T03:25:11;1.23;;;0.88;;
79284;SDS011;68734;50.452;11.636;2023-10-31T03:27:36;1.17;;;0.90;;
79284;SDS011;68734;50.452;11.636;2023-10-31T03:30:02;1.42;;;0.80;;
79284;SDS011;68734;50.452;11.636;2023-10-31T03:32:28;0.82;;;0.60;;
79284;SDS011;68734;50.452;11.636;2023-10-31T03:34:53;0.90;;;0.50;;
79284;SDS011;68734;50.452;11.636;2023-10-31T03:37:19;0.82;;;0.50;;
79284;SDS011;68734;50.452;11.636;2023-10-31T03:39:44;3.33;;;0.52;;
79284;SDS011;68734;50.452;11.636;2023-10-31T03:42:12;1.00;;;0.57;;
79284;SDS011;68734;50.452;11.636;2023-10-31T03:44:39;0.75;;;0.55;;
79284;SDS011;68734;50.452;11.636;2023-10-31T03:47:04;3.10;;;0.50;;
79284;SDS011;68734;50.452;11.636;2023-10-31T03:49:32;0.85;;;0.68;;
79284;SDS011;68734;50.452;11.636;2023-10-31T03:51:58;0.90;;;0.63;;
79284;SDS011;68734;50.452;11.636;2023-10-31T03:54:23;0.38;;;0.35;;
79284;SDS011;68734;50.452;11.636;2023-10-31T03:56:48;1.30;;;0.85;;
79284;SDS011;68734;50.452;11.636;2023-10-31T03:59:14;1.00;;;0.60;;
79284;SDS011;68734;50.452;11.636;2023-10-31T04:01:42;2.15;;;0.60;;
79284;SDS011;68734;50.452;11.636;2023-10-31T04:04:07;0.98;;;0.70;;
79284;SDS011;68734;50.452;11.636;2023-10-31T04:06:32;0.93;;;0.70;;
79284;SDS011;68734;50.452;11.636;2023-10-31T04:08:58;1.20;;;0.77;;
79284;SDS011;68734;50.452;11.636;2023-10-31T04:11:23;1.80;;;0.93;;
79284;SDS011;68734;50.452;11.636;2023-10-31T04:13:49;1.33;;;1.08;;
79284;SDS011;68734;50.452;11.636;2023-10-31T04:16:14;1.80;;;1.33;;
79284;SDS011;68734;50.452;11.636;2023-10-31T04:18:39;1.65;;;1.02;;
79284;SDS011;68734;50.452;11.636;2023-10-31T04:21:05;1.00;;;0.90;;
79284;SDS011;68734;50.452;11.636;2023-10-31T04:23:31;1.40;;;1.00;;
79284;SDS011;68734;50.452;11.636;2023-10-31T04:25:56;1.75;;;0.90;;
79284;SDS011;68734;50.452;11.636;2023-10-31T04:28:22;1.55;;;1.08;;
79284;SDS011;68734;50.452;11.636;2023-10-31T04:30:50;1.02;;;0.90;;
79284;SDS011;68734;50.452;11.636;2023-10-31T04:33:15;1.77;;;0.93;;
79284;SDS011;68734;50.452;11.636;2023-10-31T04:35:40;2.33;;;1.10;;
79284;SDS011;68734;50.452;11.636;2023-10-31T04:38:06;0.95;;;0.77;;
79284;SDS011;68734;50.452;11.636;2023-10-31T04:40:31;0.52;;;0.50;;
79284;SDS011;68734;50.452;11.636;2023-10-31T04:42:57;1.35;;;0.65;;
79284;SDS011;68734;50.452;11.636;2023-10-31T04:45:22;0.60;;;0.52;;
79284;SDS011;68734;50.452;11.636;2023-10-31T04:47:48;0.75;;;0.75;;
79284;SDS011;68734;50.452;11.636;2023-10-31T04:50:13;1.10;;;0.93;;
79284;SDS011;68734;50.452;11.636;2023-10-31T04:52:39;2.83;;;0.50;;
79284;SDS011;68734;50.452;11.636;2023-10-31T04:55:04;2.17;;;0.65;;
79284;SDS011;68734;50.452;11.636;2023-10-31T04:57:30;0.95;;;0.82;;
79284;SDS011;68734;50.452;11.636;2023-10-31T04:59:56;0.93;;;0.52;;
79284;SDS011;68734;50.452;11.636;2023-10-31T05:02:22;0.50;;;0.45;;
79284;SDS011;68734;50.452;11.636;2023-10-31T05:04:48;0.55;;;0.52;;
79284;SDS011;68734;50.452;11.636;2023-10-31T05:07:16;0.52;;;0.40;;
79284;SDS011;68734;50.452;11.636;2023-10-31T05:09:42;0.98;;;0.70;;
79284;SDS011;68734;50.452;11.636;2023-10-31T05:12:08;0.52;;;0.40;;
79284;SDS011;68734;50.452;11.636;2023-10-31T05:14:34;0.73;;;0.50;;
79284;SDS011;68734;50.452;11.636;2023-10-31T05:17:00;1.48;;;0.50;;
79284;SDS011;68734;50.452;11.636;2023-10-31T05:19:25;0.70;;;0.50;;
79284;SDS011;68734;50.452;11.636;2023-10-31T05:21:51;0.50;;;0.50;;
79284;SDS011;68734;50.452;11.636;2023-10-31T05:24:17;0.50;;;0.30;;
79284;SDS011;68734;50.452;11.636;2023-10-31T05:26:42;0.85;;;0.60;;
79284;SDS011;68734;50.452;11.636;2023-10-31T05:29:08;2.50;;;1.50;;
79284;SDS011;68734;50.452;11.636;2023-10-31T05:31:36;0.95;;;0.52;;
79284;SDS011;68734;50.452;11.636;2023-10-31T05:34:02;0.95;;;0.52;;
79284;SDS011;68734;50.452;11.636;2023-10-31T05:36:28;0.75;;;0.55;;
79284;SDS011;68734;50.452;11.636;2023-10-31T05:38:54;1.17;;;0.47;;
79284;SDS011;68734;50.452;11.636;2023-10-31T05:41:19;1.48;;;0.70;;
79284;SDS011;68734;50.452;11.636;2023-10-31T05:43:45;0.57;;;0.52;;
79284;SDS011;68734;50.452;11.636;2023-10-31T05:46:10;2.20;;;0.80;;
79284;SDS011;68734;50.452;11.636;2023-10-31T05:48:38;0.95;;;0.70;;
79284;SDS011;68734;50.452;11.636;2023-10-31T05:51:04;0.80;;;0.70;;
79284;SDS011;68734;50.452;11.636;2023-10-31T05:53:36;1.13;;;0.90;;
79284;SDS011;68734;50.452;11.636;2023-10-31T05:56:02;0.88;;;0.65;;
79284;SDS011;68734;50.452;11.636;2023-10-31T05:58:27;1.17;;;0.77;;
79284;SDS011;68734;50.452;11.636;2023-10-31T06:00:55;1.52;;;0.90;;
79284;SDS011;68734;50.452;11.636;2023-10-31T06:03:21;2.42;;;0.70;;
79284;SDS011;68734;50.452;11.636;2023-10-31T06:05:46;1.42;;;0.90;;
79284;SDS011;68734;50.452;11.636;2023-10-31T06:08:12;1.30;;;1.00;;
79284;SDS011;68734;50.452;11.636;2023-10-31T06:10:37;1.20;;;0.75;;
79284;SDS011;68734;50.452;11.636;2023-10-31T06:13:03;1.05;;;0.80;;
79284;SDS011;68734;50.452;11.636;2023-10-31T06:15:28;1.08;;;0.73;;
79284;SDS011;68734;50.452;11.636;2023-10-31T06:17:53;4.45;;;2.65;;
79284;SDS011;68734;50.452;11.636;2023-10-31T06:20:19;0.80;;;0.70;;
79284;SDS011;68734;50.452;11.636;2023-10-31T06:22:47;1.20;;;0.73;;
79284;SDS011;68734;50.452;11.636;2023-10-31T06:25:12;1.55;;;0.75;;
79284;SDS011;68734;50.452;11.636;2023-10-31T06:27:38;1.95;;;0.85;;
79284;SDS011;68734;50.452;11.636;2023-10-31T06:30:03;0.50;;;0.43;;
79284;SDS011;68734;50.452;11.636;2023-10-31T06:32:31;0.63;;;0.50;;
79284;SDS011;68734;50.452;11.636;2023-10-31T06:35:00;3.40;;;2.28;;
79284;SDS011;68734;50.452;11.636;2023-10-31T06:37:25;1.17;;;0.73;;
79284;SDS011;68734;50.452;11.636;2023-10-31T06:39:50;3.20;;;0.68;;
79284;SDS011;68734;50.452;11.636;2023-10-31T06:42:16;0.50;;;0.50;;
79284;SDS011;68734;50.452;11.636;2023-10-31T06:44:41;0.77;;;0.57;;
79284;SDS011;68734;50.452;11.636;2023-10-31T06:47:07;1.10;;;0.70;;
79284;SDS011;68734;50.452;11.636;2023-10-31T06:49:32;0.88;;;0.60;;
79284;SDS011;68734;50.452;11.636;2023-10-31T06:51:57;0.75;;;0.52;;
79284;SDS011;68734;50.452;11.636;2023-10-31T06:54:28;0.63;;;0.63;;
79284;SDS011;68734;50.452;11.636;2023-10-31T06:56:53;1.73;;;0.57;;
79284;SDS011;68734;50.452;11.636;2023-10-31T06:59:18;1.20;;;0.80;;
79284;SDS011;68734;50.452;11.636;2023-10-31T07:01:44;0.95;;;0.73;;
79284;SDS011;68734;50.452;11.636;2023-10-31T07:04:11;1.98;;;1.10;;
79284;SDS011;68734;50.452;11.636;2023-10-31T07:06:37;1.20;;;0.77;;
79284;SDS011;68734;50.452;11.636;2023-10-31T07:09:02;0.70;;;0.40;;
79284;SDS011;68734;50.452;11.636;2023-10-31T07:11:30;0.70;;;0.55;;
79284;SDS011;68734;50.452;11.636;2023-10-31T07:14:00;0.60;;;0.40;;
79284;SDS011;68734;50.452;11.636;2023-10-31T07:16:27;2.53;;;0.57;;
79284;SDS011;68734;50.452;11.636;2023-10-31T07:18:53;1.95;;;0.70;;
79284;SDS011;68734;50.452;11.636;2023-10-31T07:21:21;2.17;;;0.60;;
79284;SDS011;68734;50.452;11.636;2023-10-31T07:23:46;2.35;;;0.60;;
79284;SDS011;68734;50.452;11.636;2023-10-31T07:26:12;0.70;;;0.50;;
79284;SDS011;68734;50.452;11.636;2023-10-31T07:28:37;0.52;;;0.38;;
79284;SDS011;68734;50.452;11.636;2023-10-31T07:31:03;1.02;;;0.60;;
79284;SDS011;68734;50.452;11.636;2023-10-31T07:33:29;2.55;;;0.70;;
79284;SDS011;68734;50.452;11.636;2023-10-31T07:35:55;0.60;;;0.50;;
79284;SDS011;68734;50.452;11.636;2023-10-31T07:38:20;1.55;;;0.90;;
79284;SDS011;68734;50.452;11.636;2023-10-31T07:40:46;1.95;;;1.15;;
79284;SDS011;68734;50.452;11.636;2023-10-31T07:43:12;1.50;;;0.90;;
79284;SDS011;68734;50.452;11.636;2023-10-31T07:45:38;3.38;;;0.82;;
79284;SDS011;68734;50.452;11.636;2023-10-31T07:48:03;0.43;;;0.43;;
79284;SDS011;68734;50.452;11.636;2023-10-31T07:50:29;3.40;;;1.33;;
79284;SDS011;68734;50.452;11.636;2023-10-31T07:52:54;1.90;;;0.60;;
79284;SDS011;68734;50.452;11.636;2023-10-31T07:55:20;1.00;;;0.70;;
79284;SDS011;68734;50.452;11.636;2023-10-31T07:57:45;1.63;;;1.05;;
79284;SDS011;68734;50.452;11.636;2023-10-31T08:00:11;1.33;;;0.88;;
79284;SDS011;68734;50.452;11.636;2023-10-31T08:02:39;0.73;;;0.60;;
79284;SDS011;68734;50.452;11.636;2023-10-31T08:05:09;2.15;;;1.23;;
79284;SDS011;68734;50.452;11.636;2023-10-31T08:07:35;2.65;;;1.10;;
79284;SDS011;68734;50.452;11.636;2023-10-31T08:10:01;0.90;;;0.70;;
79284;SDS011;68734;50.452;11.636;2023-10-31T08:12:31;0.80;;;0.60;;
79284;SDS011;68734;50.452;11.636;2023-10-31T08:14:56;1.10;;;0.70;;
79284;SDS011;68734;50.452;11.636;2023-10-31T08:17:23;0.80;;;0.60;;
79284;SDS011;68734;50.452;11.636;2023-10-31T08:19:49;1.75;;;0.60;;
79284;SDS011;68734;50.452;11.636;2023-10-31T08:22:14;1.60;;;1.10;;
79284;SDS011;68734;50.452;11.636;2023-10-31T08:24:40;1.23;;;0.70;;
79284;SDS011;68734;50.452;11.636;2023-10-31T08:27:05;0.90;;;0.50;;
79284;SDS011;68734;50.452;11.636;2023-10-31T08:29:31;0.93;;;0.60;;
79284;SDS011;68734;50.452;11.636;2023-10-31T08:31:57;0.70;;;0.60;;
79284;SDS011;68734;50.452;11.636;2023-10-31T08:34:22;0.80;;;0.52;;
79284;SDS011;68734;50.452;11.636;2023-10-31T08:36:48;0.85;;;0.60;;
79284;SDS011;68734;50.452;11.636;2023-10-31T08:39:22;0.60;;;0.43;;
79284;SDS011;68734;50.452;11.636;2023-10-31T08:41:54;2.15;;;0.35;;
79284;SDS011;68734;50.452;11.636;2023-10-31T08:44:21;2.53;;;1.13;;
79284;SDS011;68734;50.452;11.636;2023-10-31T08:46:46;3.47;;;1.30;;
79284;SDS011;68734;50.452;11.636;2023-10-31T08:49:12;3.53;;;1.48;;
79284;SDS011;68734;50.452;11.636;2023-10-31T08:51:39;1.92;;;0.50;;
79284;SDS011;68734;50.452;11.636;2023-10-31T08:54:04;0.85;;;0.60;;
79284;SDS011;68734;50.452;11.636;2023-10-31T08:56:33;1.35;;;1.25;;
79284;SDS011;68734;50.452;11.636;2023-10-31T08:59:01;0.43;;;0.40;;
79284;SDS011;68734;50.452;11.636;2023-10-31T09:01:29;1.27;;;1.05;;
79284;SDS011;68734;50.452;11.636;2023-10-31T09:03:55;1.00;;;0.70;;
79284;SDS011;68734;50.452;11.636;2023-10-31T09:06:20;1.90;;;0.60;;
79284;SDS011;68734;50.452;11.636;2023-10-31T09:08:49;0.52;;;0.35;;
79284;SDS011;68734;50.452;11.636;2023-10-31T09:11:17;0.70;;;0.65;;
79284;SDS011;68734;50.452;11.636;2023-10-31T09:13:48;1.40;;;1.10;;
79284;SDS011;68734;50.452;11.636;2023-10-31T09:16:13;0.70;;;0.52;;
79284;SDS011;68734;50.452;11.636;2023-10-31T09:18:41;0.50;;;0.40;;
79284;SDS011;68734;50.452;11.636;2023-10-31T09:21:10;1.20;;;0.80;;
79284;SDS011;68734;50.452;11.636;2023-10-31T09:23:36;0.93;;;0.65;;
79284;SDS011;68734;50.452;11.636;2023-10-31T09:26:02;1.23;;;0.70;;
79284;SDS011;68734;50.452;11.636;2023-10-31T09:28:28;1.17;;;1.00;;
79284;SDS011;68734;50.452;11.636;2023-10-31T09:30:53;1.10;;;0.73;;
79284;SDS011;68734;50.452;11.636;2023-10-31T09:33:18;0.60;;;0.50;;
79284;SDS011;68734;50.452;11.636;2023-10-31T09:35:46;0.63;;;0.63;;
79284;SDS011;68734;50.452;11.636;2023-10-31T09:38:11;1.17;;;0.77;;
79284;SDS011;68734;50.452;11.636;2023-10-31T09:40:38;2.72;;;0.77;;
79284;SDS011;68734;50.452;11.636;2023-10-31T09:43:04;0.43;;;0.40;;
79284;SDS011;68734;50.452;11.636;2023-10-31T09:45:29;0.60;;;0.55;;
79284;SDS011;68734;50.452;11.636;2023-10-31T09:47:57;1.00;;;0.60;;
79284;SDS011;68734;50.452;11.636;2023-10-31T09:50:25;1.70;;;0.50;;
79284;SDS011;68734;50.452;11.636;2023-10-31T09:52:51;1.10;;;0.60;;
79284;SDS011;68734;50.452;11.636;2023-10-31T09:55:20;0.65;;;0.50;;
79284;SDS011;68734;50.452;11.636;2023-10-31T09:57:45;0.60;;;0.47;;
79284;SDS011;68734;50.452;11.636;2023-10-31T10:00:11;0.25;;;0.25;;
79284;SDS011;68734;50.452;11.636;2023-10-31T10:02:37;2.13;;;0.40;;
79284;SDS011;68734;50.452;11.636;2023-10-31T10:05:03;0.70;;;0.40;;
79284;SDS011;68734;50.452;11.636;2023-10-31T10:07:29;1.40;;;0.70;;
79284;SDS011;68734;50.452;11.636;2023-10-31T10:09:57;0.47;;;0.35;;
79284;SDS011;68734;50.452;11.636;2023-10-31T10:12:25;0.52;;;0.47;;
79284;SDS011;68734;50.452;11.636;2023-10-31T10:14:51;0.57;;;0.50;;
79284;SDS011;68734;50.452;11.636;2023-10-31T10:17:18;0.98;;;0.80;;
79284;SDS011;68734;50.452;11.636;2023-10-31T10:19:46;0.43;;;0.43;;
79284;SDS011;68734;50.452;11.636;2023-10-31T10:22:31;1.58;;;0.65;;
79284;SDS011;68734;50.452;11.636;2023-10-31T10:24:57;1.38;;;0.80;;
79284;SDS011;68734;50.452;11.636;2023-10-31T10:27:25;0.95;;;0.70;;
79284;SDS011;68734;50.452;11.636;2023-10-31T10:29:53;0.70;;;0.60;;
79284;SDS011;68734;50.452;11.636;2023-10-31T10:32:21;1.15;;;0.82;;
79284;SDS011;68734;50.452;11.636;2023-10-31T10:34:51;1.08;;;0.70;;
79284;SDS011;68734;50.452;11.636;2023-10-31T10:37:17;2.53;;;0.65;;
79284;SDS011;68734;50.452;11.636;2023-10-31T10:39:45;0.85;;;0.50;;
79284;SDS011;68734;50.452;11.636;2023-10-31T10:42:12;1.33;;;0.60;;
79284;SDS011;68734;50.452;11.636;2023-10-31T10:44:44;2.25;;;1.33;;
79284;SDS011;68734;50.452;11.636;2023-10-31T10:47:15;0.55;;;0.50;;
79284;SDS011;68734;50.452;11.636;2023-10-31T10:49:42;5.00;;;0.80;;
79284;SDS011;68734;50.452;11.636;2023-10-31T10:54:45;1.10;;;0.70;;
79284;SDS011;68734;50.452;11.636;2023-10-31T10:59:58;1.35;;;0.43;;
79284;SDS011;68734;50.452;11.636;2023-10-31T11:02:32;1.50;;;0.70;;
79284;SDS011;68734;50.452;11.636;2023-10-31T11:04:58;2.40;;;0.80;;
79284;SDS011;68734;50.452;11.636;2023-10-31T11:07:27;1.05;;;0.55;;
79284;SDS011;68734;50.452;11.636;2023-10-31T11:09:55;2.42;;;0.77;;
79284;SDS011;68734;50.452;11.636;2023-10-31T11:12:21;0.50;;;0.50;;
79284;SDS011;68734;50.452;11.636;2023-10-31T11:14:47;1.02;;;0.57;;
79284;SDS011;68734;50.452;11.636;2023-10-31T11:17:24;0.68;;;0.50;;
79284;SDS011;68734;50.452;11.636;2023-10-31T11:19:53;2.53;;;0.82;;
79284;SDS011;68734;50.452;11.636;2023-10-31T11:22:22;0.98;;;0.52;;
79284;SDS011;68734;50.452;11.636;2023-10-31T11:24:48;0.52;;;0.50;;
79284;SDS011;68734;50.452;11.636;2023-10-31T11:27:15;1.05;;;0.65;;
79284;SDS011;68734;50.452;11.636;2023-10-31T11:29:42;1.92;;;1.00;;
79284;SDS011;68734;50.452;11.636;2023-10-31T11:32:09;3.45;;;1.00;;
79284;SDS011;68734;50.452;11.636;2023-10-31T11:34:36;0.80;;;0.60;;
79284;SDS011;68734;50.452;11.636;2023-10-31T11:40:15;0.80;;;0.50;;
79284;SDS011;68734;50.452;11.636;2023-10-31T11:42:41;2.10;;;0.73;;
79284;SDS011;68734;50.452;11.636;2023-10-31T11:45:07;1.27;;;0.63;;
79284;SDS011;68734;50.452;11.636;2023-10-31T11:47:46;1.92;;;0.60;;
79284;SDS011;68734;50.452;11.636;2023-10-31T11:50:12;0.95;;;0.60;;
79284;SDS011;68734;50.452;11.636;2023-10-31T11:52:38;0.80;;;0.43;;
79284;SDS011;68734;50.452;11.636;2023-10-31T11:55:10;1.30;;;0.90;;
79284;SDS011;68734;50.452;11.636;2023-10-31T11:57:40;2.58;;;1.10;;
79284;SDS011;68734;50.452;11.636;2023-10-31T12:00:06;1.25;;;0.50;;
79284;SDS011;68734;50.452;11.636;2023-10-31T12:02:35;1.35;;;0.70;;
79284;SDS011;68734;50.452;11.636;2023-10-31T12:05:10;0.93;;;0.70;;
79284;SDS011;68734;50.452;11.636;2023-10-31T12:07:44;2.72;;;0.60;;
79284;SDS011;68734;50.452;11.636;2023-10-31T12:10:10;1.10;;;0.70;;
79284;SDS011;68734;50.452;11.636;2023-10-31T12:12:47;1.80;;;0.90;;
79284;SDS011;68734;50.452;11.636;2023-10-31T12:15:12;1.88;;;0.82;;
79284;SDS011;68734;50.452;11.636;2023-10-31T12:17:38;0.50;;;0.47;;
79284;SDS011;68734;50.452;11.636;2023-10-31T12:20:04;0.90;;;0.60;;
79284;SDS011;68734;50.452;11.636;2023-10-31T12:22:33;3.05;;;0.73;;
79284;SDS011;68734;50.452;11.636;2023-10-31T12:30:27;1.38;;;0.55;;
79284;SDS011;68734;50.452;11.636;2023-10-31T12:32:53;0.55;;;0.55;;
79284;SDS011;68734;50.452;11.636;2023-10-31T12:35:23;6.40;;;0.70;;
79284;SDS011;68734;50.452;11.636;2023-10-31T12:37:49;1.08;;;0.70;;
79284;SDS011;68734;50.452;11.636;2023-10-31T12:40:21;0.85;;;0.55;;
79284;SDS011;68734;50.452;11.636;2023-10-31T12:42:48;1.73;;;0.63;;
79284;SDS011;68734;50.452;11.636;2023-10-31T12:45:15;2.28;;;0.43;;
79284;SDS011;68734;50.452;11.636;2023-10-31T12:47:43;2.65;;;0.57;;
79284;SDS011;68734;50.452;11.636;2023-10-31T12:52:50;1.10;;;0.82;;
79284;SDS011;68734;50.452;11.636;2023-10-31T12:55:23;0.70;;;0.50;;
79284;SDS011;68734;50.452;11.636;2023-10-31T12:57:50;1.65;;;0.70;;
79284;SDS011;68734;50.452;11.636;2023-10-31T13:00:17;1.88;;;1.30;;
79284;SDS011;68734;50.452;11.636;2023-10-31T13:02:58;5.97;;;2.90;;
79284;SDS011;68734;50.452;11.636;2023-10-31T13:05:28;1.38;;;1.02;;
79284;SDS011;68734;50.452;11.636;2023-10-31T13:07:54;0.88;;;0.57;;
79284;SDS011;68734;50.452;11.636;2023-10-31T13:10:22;1.00;;;0.63;;
79284;SDS011;68734;50.452;11.636;2023-10-31T13:12:48;0.60;;;0.52;;
79284;SDS011;68734;50.452;11.636;2023-10-31T13:15:15;0.50;;;0.40;;
79284;SDS011;68734;50.452;11.636;2023-10-31T13:17:44;0.75;;;0.70;;
79284;SDS011;68734;50.452;11.636;2023-10-31T13:20:12;0.55;;;0.45;;
79284;SDS011;68734;50.452;11.636;2023-10-31T13:22:42;0.98;;;0.60;;
79284;SDS011;68734;50.452;11.636;2023-10-31T13:25:13;1.35;;;0.50;;
79284;SDS011;68734;50.452;11.636;2023-10-31T13:27:40;1.20;;;0.80;;
79284;SDS011;68734;50.452;11.636;2023-10-31T13:30:11;1.15;;;0.90;;
79284;SDS011;68734;50.452;11.636;2023-10-31T13:32:41;2.97;;;0.80;;
79284;SDS011;68734;50.452;11.636;2023-10-31T13:35:08;2.28;;;1.58;;
79284;SDS011;68734;50.452;11.636;2023-10-31T13:37:40;1.77;;;1.00;;
79284;SDS011;68734;50.452;11.636;2023-10-31T13:40:05;1.00;;;0.68;;
79284;SDS011;68734;50.452;11.636;2023-10-31T13:42:33;1.08;;;0.80;;
79284;SDS011;68734;50.452;11.636;2023-10-31T13:44:59;1.50;;;0.70;;
79284;SDS011;68734;50.452;11.636;2023-10-31T13:47:29;1.02;;;0.70;;
79284;SDS011;68734;50.452;11.636;2023-10-31T13:49:57;1.02;;;0.70;;
79284;SDS011;68734;50.452;11.636;2023-10-31T13:52:24;0.70;;;0.63;;
79284;SDS011;68734;50.452;11.636;2023-10-31T13:54:51;2.92;;;0.80;;
79284;SDS011;68734;50.452;11.636;2023-10-31T13:57:17;0.80;;;0.70;;
79284;SDS011;68734;50.452;11.636;2023-10-31T13:59:42;0.50;;;0.50;;
79284;SDS011;68734;50.452;11.636;2023-10-31T14:02:10;0.63;;;0.57;;
79284;SDS011;68734;50.452;11.636;2023-10-31T14:04:38;0.80;;;0.70;;
79284;SDS011;68734;50.452;11.636;2023-10-31T14:07:06;2.50;;;0.73;;
79284;SDS011;68734;50.452;11.636;2023-10-31T14:09:34;1.08;;;0.70;;
79284;SDS011;68734;50.452;11.636;2023-10-31T14:11:59;0.73;;;0.55;;
79284;SDS011;68734;50.452;11.636;2023-10-31T14:14:25;1.00;;;0.70;;
79284;SDS011;68734;50.452;11.636;2023-10-31T14:16:50;5.75;;;1.05;;
79284;SDS011;68734;50.452;11.636;2023-10-31T14:19:16;3.28;;;1.17;;
79284;SDS011;68734;50.452;11.636;2023-10-31T14:21:42;2.28;;;1.40;;
79284;SDS011;68734;50.452;11.636;2023-10-31T14:24:08;3.72;;;1.10;;
79284;SDS011;68734;50.452;11.636;2023-10-31T14:26:36;5.47;;;4.63;;
79284;SDS011;68734;50.452;11.636;2023-10-31T14:29:03;3.90;;;2.72;;
79284;SDS011;68734;50.452;11.636;2023-10-31T14:31:40;1.83;;;1.13;;
79284;SDS011;68734;50.452;11.636;2023-10-31T14:34:06;2.08;;;1.88;;
79284;SDS011;68734;50.452;11.636;2023-10-31T14:36:32;2.10;;;0.80;;
79284;SDS011;68734;50.452;11.636;2023-10-31T14:38:57;1.67;;;0.90;;
79284;SDS011;68734;50.452;11.636;2023-10-31T14:41:23;1.90;;;0.82;;
79284;SDS011;68734;50.452;11.636;2023-10-31T14:43:49;1.27;;;0.80;;
79284;SDS011;68734;50.452;11.636;2023-10-31T14:46:15;1.38;;;0.93;;